createdAt,value
2023-01-05T00:02:08.961Z,99824.41
2023-01-05T00:07:11.787Z,99833.06
2023-01-05T00:12:32.472Z,99837.72
2023-01-05T00:17:53.821Z,99830.66
2023-01-05T00:22:56.548Z,99827.09
2023-01-05T00:27:59.457Z,99822.88
2023-01-05T00:33:03.634Z,99824.72
2023-01-05T00:38:07.803Z,99824.84
2023-01-05T00:43:10.752Z,99839.97
2023-01-05T00:48:14.939Z,99839.59
2023-01-05T00:53:17.850Z,99836.31
2023-01-05T00:58:20.690Z,99831.78
2023-01-05T01:03:24.941Z,99842.09
2023-01-05T01:08:27.811Z,99841.63
2023-01-05T01:13:30.556Z,99848.63
2023-01-05T01:18:34.650Z,99851.13
2023-01-05T01:23:37.821Z,99841.78
2023-01-05T01:28:40.620Z,99832.97
2023-01-05T01:33:44.713Z,99835.69
2023-01-05T01:38:47.587Z,99842.91
2023-01-05T01:43:51.510Z,99831.13
2023-01-05T01:48:59.294Z,99833.44
2023-01-05T01:54:03.941Z,99845.28
2023-01-05T01:59:06.808Z,99838.94
2023-01-05T02:04:11.322Z,99840.16
2023-01-05T02:09:14.374Z,99827.00
2023-01-05T02:14:22.474Z,99839.00
2023-01-05T02:20:01.949Z,99843.75
2023-01-05T02:25:16.966Z,99838.94
2023-01-05T02:31:04.558Z,99833.69
2023-01-05T02:36:22.194Z,99830.53
2023-01-05T02:41:34.092Z,99819.47
2023-01-05T02:46:38.458Z,99822.41
2023-01-05T02:51:50.420Z,99816.56
2023-01-05T02:56:55.643Z,99819.50
2023-01-05T03:02:00.326Z,99821.59
2023-01-05T03:07:05.526Z,99826.34
2023-01-05T03:12:30.786Z,99841.84
2023-01-05T03:17:36.069Z,99846.72
2023-01-05T03:22:58.666Z,99854.06
2023-01-05T03:28:19.735Z,99862.38
2023-01-05T03:33:44.531Z,99865.41
2023-01-05T03:38:49.209Z,99861.28
2023-01-05T03:43:52.145Z,99873.97
2023-01-05T03:48:55.993Z,99874.34
2023-01-05T03:54:01.744Z,99884.34
2023-01-05T03:59:07.268Z,99888.97
2023-01-05T04:04:12.609Z,99879.47
2023-01-05T04:09:16.871Z,99891.28
2023-01-05T04:14:21.339Z,99894.22
2023-01-05T04:19:24.559Z,99903.47
2023-01-05T04:24:31.320Z,99904.56
2023-01-05T04:29:36.633Z,99908.38
2023-01-05T04:34:39.527Z,99910.31
2023-01-05T04:39:44.769Z,99918.56
2023-01-05T04:44:48.813Z,99912.50
2023-01-05T04:49:51.680Z,99920.78
2023-01-05T04:54:55.865Z,99918.47
2023-01-05T05:00:00.124Z,99926.63
2023-01-05T05:05:06.160Z,99937.56
2023-01-05T05:10:12.296Z,99937.78
2023-01-05T05:15:18.187Z,99940.56
2023-01-05T05:20:24.876Z,99933.66
2023-01-05T05:25:30.864Z,99938.28
2023-01-05T05:30:33.874Z,99937.56
2023-01-05T05:35:36.635Z,99953.72
2023-01-05T05:40:40.835Z,99961.03
2023-01-05T05:45:49.575Z,99963.81
2023-01-05T05:50:53.647Z,99976.34
2023-01-05T05:55:57.732Z,99973.06
2023-01-05T06:01:00.482Z,99972.22
2023-01-05T06:06:03.403Z,99979.50
2023-01-05T06:11:08.065Z,99980.47
2023-01-05T06:16:11.270Z,99972.81
2023-01-05T06:21:14.097Z,99984.25
2023-01-05T06:26:18.225Z,99993.13
2023-01-05T06:31:21.056Z,100004.94
2023-01-05T06:36:23.896Z,100001.53
2023-01-05T06:41:28.064Z,100015.78
2023-01-05T06:46:30.804Z,100010.50
2023-01-05T06:51:33.606Z,100021.34
2023-01-05T06:56:37.724Z,100020.38
2023-01-05T07:01:40.588Z,100027.66
2023-01-05T07:06:43.411Z,100030.47
2023-01-05T07:11:47.581Z,100037.66
2023-01-05T07:16:50.474Z,100043.13
2023-01-05T07:21:56.790Z,100050.28
2023-01-05T07:27:06.107Z,100053.19
2023-01-05T07:32:12.244Z,100071.91
2023-01-05T07:37:15.089Z,100081.91
2023-01-05T07:42:19.256Z,100077.63
2023-01-05T07:47:23.983Z,100087.50
2023-01-05T07:52:26.853Z,100095.75
2023-01-05T07:57:30.971Z,100098.44
2023-01-05T08:02:36.017Z,100100.22
2023-01-05T08:07:39.312Z,100112.88
2023-01-05T08:12:57.401Z,100110.19
2023-01-05T08:18:00.209Z,100121.75
2023-01-05T08:23:02.918Z,100140.28
2023-01-05T08:28:07.192Z,100159.22
2023-01-05T08:33:10.047Z,100159.69
2023-01-05T08:38:12.808Z,100128.13
2023-01-05T08:43:17.013Z,100136.34
2023-01-05T08:48:19.858Z,100147.13
2023-01-05T08:53:22.607Z,100147.47
2023-01-05T08:58:26.743Z,100144.19
2023-01-05T09:03:29.620Z,100148.66
2023-01-05T09:08:32.570Z,100147.00
2023-01-05T09:13:36.740Z,100159.81
2023-01-05T09:18:40.488Z,100172.84
2023-01-05T09:23:43.368Z,100177.47
2023-01-05T09:28:47.523Z,100191.59
2023-01-05T09:33:50.288Z,100196.00
2023-01-05T09:38:54.039Z,100203.16
2023-01-05T09:43:59.595Z,100210.97
2023-01-05T09:49:03.704Z,100213.03
2023-01-05T09:54:06.566Z,100222.66
2023-01-05T09:59:15.128Z,100226.53
2023-01-05T10:04:19.109Z,100230.19
2023-01-05T10:09:23.484Z,100238.56
2023-01-05T10:14:30.473Z,100249.50
2023-01-05T10:19:33.225Z,100246.09
2023-01-05T10:24:43.059Z,100249.72
2023-01-05T10:29:47.791Z,100258.38
2023-01-05T10:34:57.164Z,100273.06
2023-01-05T10:40:03.917Z,100306.13
2023-01-05T10:45:10.403Z,100266.31
2023-01-05T10:50:39.588Z,100269.69
2023-01-05T10:55:52.886Z,100275.50
2023-01-05T11:00:57.986Z,100271.97
2023-01-05T11:06:00.972Z,100274.97
2023-01-05T11:11:05.533Z,100271.28
2023-01-05T11:16:12.811Z,100275.66
2023-01-05T11:21:16.892Z,100290.09
2023-01-05T11:26:31.159Z,100283.53
2023-01-05T11:31:36.842Z,100288.66
2023-01-05T11:36:39.786Z,100291.31
2023-01-05T11:41:43.694Z,100302.03
2023-01-05T11:46:48.453Z,100303.84
2023-01-05T11:51:51.255Z,100305.91
2023-01-05T11:56:55.500Z,100300.69
2023-01-05T12:02:03.831Z,100316.09
2023-01-05T12:07:21.547Z,100317.72
2023-01-05T12:12:40.388Z,100324.25
2023-01-05T12:17:49.052Z,100323.19
2023-01-05T12:23:02.574Z,100329.53
2023-01-05T12:28:35.790Z,100333.91
2023-01-05T12:34:04.185Z,100348.03
2023-01-05T12:39:20.477Z,100347.97
2023-01-05T12:44:35.399Z,100361.97
2023-01-05T12:49:41.309Z,100362.81
2023-01-05T12:54:46.178Z,100373.66
2023-01-05T12:59:52.920Z,100368.53
2023-01-05T13:04:59.185Z,100372.13
2023-01-05T13:10:03.929Z,100379.31
2023-01-05T13:15:16.617Z,100384.78
2023-01-05T13:20:25.625Z,100376.63
2023-01-05T13:25:29.735Z,100399.16
2023-01-05T13:30:34.166Z,100407.19
2023-01-05T13:35:52.405Z,100402.78
2023-01-05T13:41:10.605Z,100411.78
2023-01-05T13:46:30.504Z,100425.19
2023-01-05T13:51:41.721Z,100436.97
2023-01-05T13:56:46.518Z,100446.59
2023-01-05T14:01:49.426Z,100452.06
2023-01-05T14:06:54.886Z,100457.31
2023-01-05T14:12:42.538Z,100458.50
2023-01-05T14:17:58.003Z,100469.72
2023-01-05T14:23:02.793Z,100468.44
2023-01-05T14:28:23.107Z,100481.72
2023-01-05T14:33:25.894Z,100502.19
2023-01-05T14:38:30.172Z,100496.72
2023-01-05T14:43:33.999Z,100512.03
2023-01-05T14:48:37.856Z,100530.78
2023-01-05T14:53:43.107Z,100529.19
2023-01-05T14:58:55.732Z,100546.00
2023-01-05T15:04:01.553Z,100550.00
2023-01-05T15:09:16.052Z,100572.06
2023-01-05T15:14:35.275Z,100583.63
2023-01-05T15:19:59.467Z,100574.41
2023-01-05T15:25:27.468Z,100590.84
2023-01-05T15:30:42.598Z,100590.31
2023-01-05T15:35:48.958Z,100609.53
2023-01-05T15:40:59.120Z,100613.38
2023-01-05T15:46:02.015Z,100629.00
2023-01-05T15:51:06.003Z,100630.44
2023-01-05T15:56:26.775Z,100645.00
2023-01-05T16:01:29.731Z,100643.63
2023-01-05T16:06:32.580Z,100635.00
2023-01-05T16:11:38.674Z,100637.91
2023-01-05T16:16:52.671Z,100643.69
2023-01-05T16:21:58.461Z,100648.53
2023-01-05T16:27:03.607Z,100655.28
2023-01-05T16:32:24.819Z,100659.13
2023-01-05T16:37:27.876Z,100661.28
2023-01-05T16:42:40.844Z,100646.56
2023-01-05T16:47:43.746Z,100673.91
2023-01-05T16:52:52.576Z,100683.47
2023-01-05T16:57:56.840Z,100676.03
2023-01-05T17:03:00.141Z,100679.25
2023-01-05T17:08:06.740Z,100684.03
2023-01-05T17:13:13.435Z,100685.56
2023-01-05T17:18:17.377Z,100692.28
2023-01-05T17:23:22.460Z,100701.00
2023-01-05T17:28:26.799Z,100714.91
2023-01-05T17:33:29.701Z,100712.03
2023-01-05T17:38:32.537Z,100720.81
2023-01-05T17:43:36.748Z,100726.69
2023-01-05T17:48:39.567Z,100732.63
2023-01-05T17:53:42.342Z,100728.84
2023-01-05T17:58:46.496Z,100735.72
2023-01-05T18:03:49.406Z,100738.81
2023-01-05T18:08:52.148Z,100735.16
2023-01-05T18:13:56.353Z,100752.75
2023-01-05T18:18:59.178Z,100755.22
2023-01-05T18:24:02.122Z,100765.00
2023-01-05T18:29:06.304Z,100766.63
2023-01-05T18:34:14.263Z,100766.25
2023-01-05T18:39:17.213Z,100768.81
2023-01-05T18:44:21.465Z,100780.09
2023-01-05T18:49:24.364Z,100772.16
2023-01-05T18:54:27.192Z,100773.63
2023-01-05T18:59:31.343Z,100781.44
2023-01-05T19:04:34.122Z,100776.72
2023-01-05T19:09:38.071Z,100782.97
2023-01-05T19:14:42.238Z,100792.00
2023-01-05T19:19:45.101Z,100795.31
2023-01-05T19:24:47.870Z,100799.81
2023-01-05T19:29:51.996Z,100800.78
2023-01-05T19:34:54.851Z,100792.59
2023-01-05T19:39:57.735Z,100804.97
2023-01-05T19:45:03.497Z,100808.63
2023-01-05T19:50:07.810Z,100812.03
2023-01-05T19:55:11.911Z,100808.66
2023-01-05T20:00:17.524Z,100808.34
2023-01-05T20:05:20.327Z,100809.59
2023-01-05T20:10:23.228Z,100808.50
2023-01-05T20:15:27.436Z,100808.69
2023-01-05T20:20:30.307Z,100824.69
2023-01-05T20:25:33.098Z,100830.59
2023-01-05T20:30:37.452Z,100816.53
2023-01-05T20:35:40.968Z,100829.66
2023-01-05T20:40:43.892Z,100827.22
2023-01-05T20:45:48.302Z,100831.38
2023-01-05T20:50:51.075Z,100832.09
2023-01-05T20:55:53.857Z,100842.00
2023-01-05T21:01:10.968Z,100835.56
2023-01-05T21:06:15.691Z,100835.78
2023-01-05T21:11:19.231Z,100839.44
2023-01-05T21:16:24.680Z,100849.09
2023-01-05T21:21:28.039Z,100858.78
2023-01-05T21:26:30.854Z,100856.56
2023-01-05T21:31:36.965Z,100858.53
2023-01-05T21:36:43.205Z,100858.53
2023-01-05T21:42:03.304Z,100855.97
2023-01-05T21:47:07.554Z,100849.75
2023-01-05T21:52:28.449Z,100848.66
2023-01-05T21:57:31.312Z,100850.34
2023-01-05T22:02:35.930Z,100841.78
2023-01-05T22:07:38.813Z,100845.34
2023-01-05T22:12:41.699Z,100844.13
2023-01-05T22:17:45.979Z,100846.56
2023-01-05T22:22:48.807Z,100859.16
2023-01-05T22:27:51.555Z,100857.44
2023-01-05T22:32:56.428Z,100860.00
2023-01-05T22:37:59.966Z,100854.53
2023-01-05T22:43:02.983Z,100860.66
2023-01-05T22:48:07.581Z,100856.13
2023-01-05T22:53:10.348Z,100862.63
2023-01-05T22:58:13.171Z,100856.25
2023-01-05T23:03:17.369Z,100856.88
2023-01-05T23:08:20.186Z,100854.53
2023-01-05T23:13:22.951Z,100857.72
2023-01-05T23:18:27.193Z,100855.16
2023-01-05T23:23:30.042Z,100849.41
2023-01-05T23:28:32.855Z,100848.41
2023-01-05T23:33:37.469Z,100851.47
2023-01-05T23:38:40.450Z,100840.84
2023-01-05T23:43:44.971Z,100841.56
2023-01-05T23:48:49.317Z,100840.72
2023-01-05T23:53:53.229Z,100818.66
2023-01-05T23:58:58.006Z,100828.22
